Riceton, Canada
Current Conditions -  °F | °C
As of 11:00 AM on Thursday 18 Dec 2014 (Local Time) from CYQR Reporting Station
Haze Haze  
Wind Chill: -12°   Ceiling: 500
Heat Index: -6°   Visibility: 5mi
Dew Point: -6°   Wind: 9mph
Humidity: 100%   Direction: 160°SSE
Pressure: 29.95"   Gusts: NA
Location:  50.1°N, 104.32°W
Report Text: CYQR 181700Z 16008KT 5SM BR OVC005 M06/M06 A2995 RMK ST8 SLP180
Loading
Personal Weather Stations






























Interactive Weather Map New forecast layout! Learn more

10-Day Weather Forecast

Advertisements
Track Severe Weather on mobile